Time;durP1;ratioP1;P1;durP2;ratioP2;P2;SDS_P1;SDS_P2;PMS_P1;PMS_P2;Temp;Humidity;BMP_temperature;BMP_pressure;BME280_temperature;BME280_humidity;BME280_pressure;Samples;Min_cycle;Max_cycle;Signal;HPM_P1;HPM_P2
2023/03/16 00:00:56;;;;;;;8.40;7.00;;;;;;;3.64;91.26;101657.56;5027547;28;20086;-84
2023/03/16 00:03:21;;;;;;;10.97;6.70;;;;;;;3.60;92.30;101650.81;5027133;28;20037;-83
2023/03/16 00:05:48;;;;;;;9.77;7.03;;;;;;;3.63;91.65;101647.84;5024898;28;20117;-84
2023/03/16 00:08:15;;;;;;;10.83;7.30;;;;;;;3.63;92.01;101639.78;5027205;28;20029;-84
2023/03/16 00:10:45;;;;;;;9.80;7.10;;;;;;;3.67;92.03;101638.50;5025791;28;21015;-84
2023/03/16 00:13:11;;;;;;;8.90;7.20;;;;;;;3.71;92.21;101637.22;5026831;28;20481;-84
2023/03/16 00:15:37;;;;;;;9.57;6.83;;;;;;;3.69;92.49;101633.84;5024874;28;20044;-84
2023/03/16 00:18:02;;;;;;;11.77;7.70;;;;;;;3.68;92.60;101637.53;5026074;28;20374;-84
2023/03/16 00:20:27;;;;;;;10.97;7.33;;;;;;;3.72;92.85;101639.75;5027780;28;20450;-84
2023/03/16 00:22:53;;;;;;;12.30;7.50;;;;;;;3.68;93.68;101632.16;5026252;28;20022;-83
2023/03/16 00:25:18;;;;;;;8.43;6.77;;;;;;;3.70;92.42;101640.91;5023719;28;20099;-84
2023/03/16 00:27:45;;;;;;;8.00;6.87;;;;;;;3.70;92.83;101633.72;5028034;28;20078;-83
2023/03/16 00:30:11;;;;;;;9.27;7.40;;;;;;;3.72;93.09;101634.38;5027544;28;20123;-84
2023/03/16 00:32:37;;;;;;;8.97;7.00;;;;;;;3.74;92.27;101620.88;5027066;28;20091;-84
2023/03/16 00:35:04;;;;;;;8.57;7.10;;;;;;;3.73;93.30;101621.84;5027067;28;20037;-84
2023/03/16 00:37:31;;;;;;;8.23;6.80;;;;;;;3.74;93.04;101630.72;5027063;28;20040;-84
2023/03/16 00:39:57;;;;;;;9.13;6.80;;;;;;;3.75;92.85;101613.66;5026146;28;20033;-84
2023/03/16 00:42:28;;;;;;;8.90;6.80;;;;;;;3.74;92.61;101609.28;5021499;28;20067;-84
2023/03/16 00:44:57;;;;;;;8.57;7.20;;;;;;;3.72;93.53;101612.94;5025129;28;20057;-84
2023/03/16 00:47:25;;;;;;;8.17;6.70;;;;;;;3.73;93.39;101611.13;5020313;28;20034;-84
2023/03/16 00:49:51;;;;;;;8.97;7.47;;;;;;;3.72;93.07;101604.06;5020807;28;20469;-84
2023/03/16 00:52:16;;;;;;;9.50;6.97;;;;;;;3.75;93.10;101598.41;5025764;28;20045;-84
2023/03/16 00:54:43;;;;;;;8.27;7.00;;;;;;;3.75;93.03;101601.09;5021222;28;20938;-84
2023/03/16 00:57:11;;;;;;;9.87;6.93;;;;;;;3.76;93.15;101597.41;5022679;28;20041;-83
2023/03/16 00:59:37;;;;;;;9.00;7.13;;;;;;;3.75;93.49;101592.22;5019953;28;20033;-84
2023/03/16 01:02:04;;;;;;;9.00;7.10;;;;;;;3.76;93.73;101597.41;5021221;28;20029;-84
2023/03/16 01:04:29;;;;;;;10.00;6.70;;;;;;;3.76;93.45;101586.69;5020816;28;20625;-84
2023/03/16 01:06:55;;;;;;;11.23;7.40;;;;;;;3.77;94.61;101588.41;5019554;28;20497;-84
2023/03/16 01:09:20;;;;;;;8.10;6.93;;;;;;;3.76;93.98;101575.97;5020074;28;20628;-84
2023/03/16 01:11:50;;;;;;;9.70;7.00;;;;;;;3.78;94.19;101573.16;5020643;28;20128;-84
2023/03/16 01:14:15;;;;;;;9.63;7.20;;;;;;;3.75;94.81;101571.59;5022010;28;20029;-84
2023/03/16 01:16:44;;;;;;;8.27;7.20;;;;;;;3.75;94.66;101574.28;5020437;28;20021;-84
2023/03/16 01:19:11;;;;;;;8.03;6.73;;;;;;;3.76;94.39;101567.09;5021071;28;20040;-84
2023/03/16 01:21:37;;;;;;;9.63;7.00;;;;;;;3.72;94.48;101555.81;5022844;28;21023;-84
2023/03/16 01:24:03;;;;;;;9.67;7.07;;;;;;;3.74;94.68;101550.31;5022020;28;20029;-84
2023/03/16 01:26:29;;;;;;;10.57;7.17;;;;;;;3.72;94.72;101548.63;5024351;28;20099;-84
2023/03/16 01:28:54;;;;;;;9.27;7.03;;;;;;;3.75;94.11;101557.38;5022300;28;20049;-84
2023/03/16 01:31:19;;;;;;;8.87;6.80;;;;;;;3.73;94.60;101554.84;5023779;28;20114;-84
2023/03/16 01:33:45;;;;;;;9.30;7.03;;;;;;;3.70;94.93;101558.66;5025792;28;20065;-84
2023/03/16 01:36:15;;;;;;;9.90;7.10;;;;;;;3.70;94.89;101549.78;5026880;28;20049;-84
2023/03/16 01:38:42;;;;;;;10.60;6.83;;;;;;;3.70;94.86;101544.44;5026926;28;20036;-84
2023/03/16 01:41:08;;;;;;;10.70;7.23;;;;;;;3.66;95.55;101549.22;5023792;28;20116;-84
2023/03/16 01:43:36;;;;;;;9.10;7.63;;;;;;;3.67;95.94;101542.88;5023361;28;20064;-84
2023/03/16 01:46:04;;;;;;;10.90;7.37;;;;;;;3.66;95.59;101543.03;5020329;28;20037;-84
2023/03/16 01:48:36;;;;;;;9.60;7.47;;;;;;;3.67;95.87;101544.69;5024208;28;20048;-84
2023/03/16 01:51:28;;;;;;;9.97;7.47;;;;;;;3.68;96.43;101546.41;5028805;28;20052;-84
2023/03/16 01:54:00;;;;;;;10.40;7.40;;;;;;;3.64;97.03;101539.66;5023402;28;20033;-84
2023/03/16 01:57:03;;;;;;;8.30;7.33;;;;;;;3.68;96.65;101538.34;5022677;28;20041;-84
2023/03/16 01:59:34;;;;;;;9.90;7.33;;;;;;;3.70;96.61;101534.53;5024815;28;20463;-83
2023/03/16 02:02:01;;;;;;;9.10;7.00;;;;;;;3.66;96.54;101532.31;5019008;28;20033;-84
2023/03/16 02:04:41;;;;;;;10.17;7.50;;;;;;;3.65;97.59;101528.78;5018080;28;20516;-78
2023/03/16 02:07:09;;;;;;;11.03;7.70;;;;;;;3.62;96.81;101520.19;5013298;28;20036;-78
2023/03/16 02:09:45;;;;;;;9.40;7.60;;;;;;;3.63;97.71;101517.38;5010980;28;20158;-78
2023/03/16 02:12:16;;;;;;;8.03;7.23;;;;;;;3.63;97.12;101511.16;5012592;28;20539;-78
2023/03/16 02:14:43;;;;;;;9.50;7.47;;;;;;;3.61;97.64;101502.44;5013873;28;20120;-78
2023/03/16 02:17:08;;;;;;;9.90;7.57;;;;;;;3.61;97.52;101500.59;5007606;28;20159;-78
2023/03/16 02:19:46;;;;;;;10.33;7.50;;;;;;;3.63;97.16;101503.97;5012193;28;20038;-78
2023/03/16 02:22:12;;;;;;;8.80;7.87;;;;;;;3.62;97.27;101494.25;5020256;28;20221;-84
2023/03/16 02:24:38;;;;;;;10.83;7.20;;;;;;;3.63;97.91;101497.75;5022287;28;20493;-84
2023/03/16 02:27:08;;;;;;;9.87;7.43;;;;;;;3.66;97.42;101492.13;5026292;28;20049;-84
2023/03/16 02:29:58;;;;;;;10.10;7.30;;;;;;;3.66;97.86;101490.28;5022042;28;20767;-84
2023/03/16 02:32:25;;;;;;;9.73;7.43;;;;;;;3.67;97.64;101497.31;5022823;28;21789;-84
2023/03/16 02:34:50;;;;;;;10.63;7.43;;;;;;;3.68;98.01;101498.16;5019853;28;20135;-84
2023/03/16 02:37:16;;;;;;;8.30;7.10;;;;;;;3.67;99.00;101494.66;5027304;28;20037;-84
2023/03/16 02:39:42;;;;;;;9.07;7.03;;;;;;;3.65;99.90;101495.78;5022216;28;20056;-84
2023/03/16 02:42:12;;;;;;;8.40;7.43;;;;;;;3.67;100.00;101501.81;5021988;28;20029;-83
2023/03/16 02:44:40;;;;;;;10.77;7.73;;;;;;;3.65;100.00;101499.28;5024075;28;20033;-84
2023/03/16 02:47:12;;;;;;;12.20;7.83;;;;;;;3.65;100.00;101503.81;5024569;28;20034;-83
2023/03/16 02:49:40;;;;;;;10.53;7.13;;;;;;;3.69;100.00;101510.56;5037335;28;20432;-78
2023/03/16 02:52:06;;;;;;;11.00;7.43;;;;;;;3.67;100.00;101499.16;5013418;28;21035;-78
2023/03/16 02:54:32;;;;;;;10.80;7.97;;;;;;;3.63;100.00;101497.75;5012270;28;20163;-78
2023/03/16 02:56:57;;;;;;;10.03;7.07;;;;;;;3.62;100.00;101493.38;5012624;28;20037;-78
2023/03/16 02:59:23;;;;;;;11.20;7.70;;;;;;;3.63;100.00;101485.22;5013306;28;20611;-78
2023/03/16 03:01:48;;;;;;;10.27;7.30;;;;;;;3.62;100.00;101488.03;5012279;28;20063;-78
2023/03/16 03:04:13;;;;;;;11.50;7.63;;;;;;;3.63;100.00;101487.91;5012452;28;20033;-78
2023/03/16 03:06:40;;;;;;;9.67;7.33;;;;;;;3.60;100.00;101487.34;5013040;28;20033;-78
2023/03/16 03:09:06;;;;;;;11.63;7.27;;;;;;;3.61;100.00;101486.34;5012267;28;20095;-78
2023/03/16 03:11:32;;;;;;;9.33;7.70;;;;;;;3.59;100.00;101483.84;5012354;28;21049;-78
2023/03/16 03:13:57;;;;;;;9.43;7.30;;;;;;;3.59;100.00;101491.00;5013090;28;20037;-78
2023/03/16 03:16:23;;;;;;;9.43;7.13;;;;;;;3.59;100.00;101489.19;5010902;28;20029;-78
2023/03/16 03:18:49;;;;;;;7.80;6.80;;;;;;;3.60;100.00;101482.81;5007058;28;20068;-78
2023/03/16 03:21:15;;;;;;;8.97;6.80;;;;;;;3.58;100.00;101490.19;5011399;28;20147;-78
2023/03/16 03:23:40;;;;;;;8.07;7.27;;;;;;;3.57;100.00;101476.94;5012290;28;20025;-78
2023/03/16 03:26:06;;;;;;;9.70;6.80;;;;;;;3.55;100.00;101475.25;5012266;28;20460;-78
2023/03/16 03:28:33;;;;;;;8.97;7.13;;;;;;;3.58;100.00;101465.19;5012749;28;20047;-78
2023/03/16 03:31:00;;;;;;;10.87;7.00;;;;;;;3.59;100.00;101466.91;5011812;28;20073;-78
2023/03/16 03:33:26;;;;;;;10.53;6.90;;;;;;;3.57;100.00;101466.22;5010307;28;20500;-78
2023/03/16 03:35:56;;;;;;;9.63;7.00;;;;;;;3.54;100.00;101468.19;5011308;28;20033;-78
2023/03/16 03:38:23;;;;;;;9.77;7.00;;;;;;;3.52;100.00;101451.44;5011663;28;20030;-78
2023/03/16 03:40:50;;;;;;;10.00;6.97;;;;;;;3.54;100.00;101464.69;5010697;28;20037;-78
2023/03/16 03:43:15;;;;;;;11.03;7.23;;;;;;;3.52;100.00;101458.59;5011715;28;20034;-78
2023/03/16 03:45:40;;;;;;;9.27;7.33;;;;;;;3.52;100.00;101467.50;5011717;28;20102;-78
2023/03/16 03:48:06;;;;;;;10.20;7.20;;;;;;;3.50;100.00;101461.44;5010908;28;20038;-78
2023/03/16 03:50:31;;;;;;;10.40;7.40;;;;;;;3.50;100.00;101457.94;5011072;28;20123;-78
2023/03/16 03:52:57;;;;;;;8.10;7.10;;;;;;;3.48;100.00;101455.41;5011752;28;20514;-78
2023/03/16 03:55:22;;;;;;;11.30;7.53;;;;;;;3.49;100.00;101458.91;5011206;28;20152;-78
2023/03/16 03:57:48;;;;;;;9.80;7.00;;;;;;;3.51;100.00;101460.47;5011555;28;20048;-78
2023/03/16 04:00:13;;;;;;;9.97;7.30;;;;;;;3.49;100.00;101461.59;5013996;28;20033;-78
2023/03/16 04:02:39;;;;;;;10.03;6.90;;;;;;;3.49;100.00;101442.84;5015716;28;20362;-78
2023/03/16 04:05:06;;;;;;;8.60;6.90;;;;;;;3.49;100.00;101443.69;5015918;28;20049;-78
2023/03/16 04:07:31;;;;;;;8.77;7.10;;;;;;;3.49;100.00;101446.34;5031626;28;20042;-78
2023/03/16 04:09:57;;;;;;;8.37;6.80;;;;;;;3.48;100.00;101446.50;5015988;28;20076;-78
2023/03/16 04:12:22;;;;;;;9.33;6.90;;;;;;;3.52;100.00;101445.22;5015403;28;20071;-78
2023/03/16 04:14:48;;;;;;;9.23;7.03;;;;;;;3.51;100.00;101440.88;5015555;28;20042;-78
2023/03/16 04:17:13;;;;;;;9.03;6.97;;;;;;;3.51;100.00;101444.38;5015698;28;20033;-78
2023/03/16 04:19:39;;;;;;;7.97;6.57;;;;;;;3.50;100.00;101437.34;5015445;28;20037;-78
2023/03/16 04:22:05;;;;;;;8.03;6.47;;;;;;;3.51;100.00;101439.03;5015531;28;20041;-78
2023/03/16 04:24:33;;;;;;;13.00;6.90;;;;;;;3.49;100.00;101443.69;5015316;28;20405;-78
2023/03/16 04:26:58;;;;;;;11.77;7.50;;;;;;;3.51;100.00;101438.19;5013876;28;21919;-78
2023/03/16 04:29:24;;;;;;;10.93;7.27;;;;;;;3.50;100.00;101437.34;5014713;28;20034;-78
2023/03/16 04:31:49;;;;;;;11.23;7.03;;;;;;;3.53;100.00;101441.56;5014114;28;20048;-78
2023/03/16 04:34:15;;;;;;;10.10;6.90;;;;;;;3.54;100.00;101438.72;5014726;28;20063;-78
2023/03/16 04:36:41;;;;;;;8.80;7.00;;;;;;;3.57;100.00;101440.25;5013843;28;20448;-78
2023/03/16 04:39:07;;;;;;;7.97;6.33;;;;;;;3.53;100.00;101433.50;5014899;28;20056;-78
2023/03/16 04:41:33;;;;;;;9.23;6.97;;;;;;;3.53;100.00;101436.19;5007017;28;20033;-78
2023/03/16 04:43:58;;;;;;;9.27;6.50;;;;;;;3.55;100.00;101435.06;5013234;28;20511;-78
2023/03/16 04:46:25;;;;;;;9.57;6.73;;;;;;;3.53;100.00;101433.50;5014864;28;20029;-78
2023/03/16 04:48:51;;;;;;;9.80;6.90;;;;;;;3.57;100.00;101434.91;5013836;28;20179;-78
2023/03/16 04:51:16;;;;;;;9.40;6.40;;;;;;;3.57;100.00;101432.22;5013915;28;20505;-79
2023/03/16 04:53:43;;;;;;;8.97;6.50;;;;;;;3.59;100.00;101432.91;5013320;28;20088;-78
2023/03/16 04:56:08;;;;;;;8.17;6.40;;;;;;;3.59;100.00;101435.59;5015382;28;20036;-78
2023/03/16 04:58:34;;;;;;;7.47;6.60;;;;;;;3.58;100.00;101433.91;5014650;28;20037;-78
2023/03/16 05:00:59;;;;;;;8.93;6.10;;;;;;;3.60;100.00;101431.91;5015352;28;20080;-78
2023/03/16 05:03:24;;;;;;;8.03;6.30;;;;;;;3.61;100.00;101433.59;5016553;28;20540;-78
2023/03/16 05:05:50;;;;;;;9.23;6.47;;;;;;;3.59;100.00;101419.53;5018029;28;20139;-78
2023/03/16 05:08:16;;;;;;;8.50;6.53;;;;;;;3.61;100.00;101420.19;5017346;28;20030;-78
2023/03/16 05:10:43;;;;;;;9.90;6.43;;;;;;;3.62;100.00;101423.72;5019011;28;20048;-78
2023/03/16 05:13:08;;;;;;;9.60;6.60;;;;;;;3.60;100.00;101415.00;5010739;28;20491;-78
2023/03/16 05:15:34;;;;;;;11.07;6.67;;;;;;;3.60;100.00;101412.31;5018966;28;20041;-78
2023/03/16 05:18:00;;;;;;;9.57;6.07;;;;;;;3.61;100.00;101409.47;5018716;28;20386;-78
2023/03/16 05:20:26;;;;;;;8.10;6.07;;;;;;;3.61;100.00;101412.16;5018738;28;20048;-78
2023/03/16 05:22:51;;;;;;;9.80;6.57;;;;;;;3.61;100.00;101406.78;5018408;28;20037;-78
2023/03/16 05:25:18;;;;;;;8.87;6.23;;;;;;;3.63;100.00;101403.97;5018214;28;20120;-78
2023/03/16 05:27:45;;;;;;;9.17;6.30;;;;;;;3.66;100.00;101398.31;5018327;28;20053;-78
2023/03/16 05:30:12;;;;;;;9.80;6.40;;;;;;;3.66;100.00;101401.84;5018601;28;20132;-78
2023/03/16 05:32:38;;;;;;;9.17;6.27;;;;;;;3.69;100.00;101406.03;5018275;28;21729;-78
2023/03/16 05:35:05;;;;;;;10.30;6.53;;;;;;;3.69;100.00;101403.38;5017796;28;20042;-78
2023/03/16 05:37:31;;;;;;;10.10;6.47;;;;;;;3.72;100.00;101403.06;5018323;28;20041;-78
2023/03/16 05:39:57;;;;;;;7.37;5.77;;;;;;;3.76;100.00;101404.44;5018628;28;20447;-78
2023/03/16 05:42:25;;;;;;;8.77;6.23;;;;;;;3.77;100.00;101400.75;5018136;28;20916;-78
2023/03/16 05:44:51;;;;;;;7.10;6.00;;;;;;;3.79;100.00;101398.75;5018161;28;20051;-79
2023/03/16 05:47:17;;;;;;;8.63;6.20;;;;;;;3.79;100.00;101395.25;5018186;28;20041;-78
2023/03/16 05:49:42;;;;;;;7.10;5.60;;;;;;;3.82;100.00;101393.09;5010344;28;20033;-78
2023/03/16 05:52:07;;;;;;;10.17;6.20;;;;;;;3.83;100.00;101392.09;5018410;28;20033;-78
2023/03/16 05:54:33;;;;;;;8.50;6.00;;;;;;;3.83;100.00;101386.72;5017765;28;20485;-78
2023/03/16 05:56:58;;;;;;;8.63;5.90;;;;;;;3.84;100.00;101390.28;5018285;28;20087;-78
2023/03/16 05:59:23;;;;;;;10.23;6.10;;;;;;;3.87;100.00;101385.41;5017563;28;20047;-78
2023/03/16 06:01:49;;;;;;;11.37;6.27;;;;;;;3.85;100.00;101389.28;5018169;28;20037;-78
2023/03/16 06:04:15;;;;;;;11.03;6.40;;;;;;;3.86;100.00;101388.25;5016475;28;20690;-78
2023/03/16 06:06:40;;;;;;;11.60;6.60;;;;;;;3.84;100.00;101387.59;5016392;28;20086;-78
2023/03/16 06:09:06;;;;;;;8.63;6.33;;;;;;;3.85;100.00;101395.47;5016121;28;20041;-78
2023/03/16 06:11:31;;;;;;;10.90;6.13;;;;;;;3.87;100.00;101390.78;5016975;28;20119;-78
2023/03/16 06:13:58;;;;;;;9.73;6.40;;;;;;;3.88;100.00;101387.13;5016030;28;20485;-78
2023/03/16 06:16:24;;;;;;;9.40;6.40;;;;;;;3.90;100.00;101378.91;5016485;28;20084;-78
2023/03/16 06:18:50;;;;;;;9.60;6.20;;;;;;;3.90;100.00;101384.28;5017281;28;20153;-78
2023/03/16 06:21:16;;;;;;;10.20;6.00;;;;;;;3.93;100.00;101385.81;5016848;28;21721;-78
2023/03/16 06:23:41;;;;;;;10.50;6.13;;;;;;;3.95;100.00;101381.97;5016907;28;20034;-78
2023/03/16 06:26:07;;;;;;;9.63;6.10;;;;;;;3.98;100.00;101386.19;5016350;28;20494;-78
2023/03/16 06:28:32;;;;;;;9.77;6.10;;;;;;;3.98;100.00;101386.19;5017027;28;20473;-78
2023/03/16 06:30:58;;;;;;;7.90;5.90;;;;;;;4.00;100.00;101384.22;5010409;28;20095;-78
2023/03/16 06:33:23;;;;;;;10.87;6.53;;;;;;;4.00;100.00;101385.03;5016841;28;20041;-78
2023/03/16 06:35:50;;;;;;;9.67;6.00;;;;;;;4.04;100.00;101378.38;5017630;28;20549;-78
2023/03/16 06:38:16;;;;;;;9.10;5.77;;;;;;;4.06;100.00;101381.72;5009152;28;20040;-78
2023/03/16 06:40:42;;;;;;;9.57;5.90;;;;;;;4.07;100.00;101374.53;5017298;28;20770;-78
2023/03/16 06:43:07;;;;;;;9.93;6.00;;;;;;;4.09;100.00;101374.38;5015037;28;20052;-78
2023/03/16 06:45:33;;;;;;;9.90;5.90;;;;;;;4.08;100.00;101378.91;5016729;28;20079;-78
2023/03/16 06:47:58;;;;;;;7.70;5.80;;;;;;;4.11;100.00;101375.03;5016602;28;20038;-78
2023/03/16 06:50:24;;;;;;;9.27;6.10;;;;;;;4.08;100.00;101384.28;5017034;28;21156;-78
2023/03/16 06:52:50;;;;;;;9.77;6.47;;;;;;;4.12;100.00;101385.66;5016843;28;20034;-78
2023/03/16 06:55:15;;;;;;;8.73;6.27;;;;;;;4.10;100.00;101390.31;5016539;28;20463;-78
2023/03/16 06:57:41;;;;;;;10.40;6.57;;;;;;;4.10;100.00;101378.75;5016929;28;20044;-78
2023/03/16 07:00:14;;;;;;;10.07;6.63;;;;;;;4.09;100.00;101375.22;5016774;28;20029;-78
2023/03/16 07:02:39;;;;;;;8.43;6.17;;;;;;;4.12;100.00;101366.00;5016836;28;20397;-78
2023/03/16 07:05:06;;;;;;;11.17;6.47;;;;;;;4.12;100.00;101372.22;5016552;28;20033;-78
2023/03/16 07:07:32;;;;;;;9.90;6.73;;;;;;;4.15;100.00;101361.19;5016352;28;20021;-78
2023/03/16 07:09:58;;;;;;;9.03;6.37;;;;;;;4.21;100.00;101365.06;5026184;28;20038;-84
2023/03/16 07:12:23;;;;;;;9.20;6.90;;;;;;;4.23;100.00;101361.25;5029003;28;20037;-84
2023/03/16 07:14:48;;;;;;;9.60;6.37;;;;;;;4.30;100.00;101355.25;5025138;28;20033;-84
2023/03/16 07:17:14;;;;;;;8.90;6.00;;;;;;;4.33;100.00;101363.81;5027407;28;20113;-84
2023/03/16 07:19:39;;;;;;;9.27;6.50;;;;;;;4.40;100.00;101358.66;5027868;28;20022;-84
2023/03/16 07:22:05;;;;;;;10.20;6.73;;;;;;;4.44;100.00;101360.03;5027001;28;20029;-84
2023/03/16 07:24:31;;;;;;;11.60;6.57;;;;;;;4.47;100.00;101351.66;5025469;28;20477;-83
2023/03/16 07:26:56;;;;;;;12.10;7.37;;;;;;;4.49;100.00;101365.75;5024478;28;20061;-83
2023/03/16 07:29:22;;;;;;;9.33;6.60;;;;;;;4.54;100.00;101365.28;5025365;28;20076;-84
2023/03/16 07:31:47;;;;;;;10.03;6.73;;;;;;;4.59;100.00;101362.13;5025932;28;20026;-83
2023/03/16 07:34:13;;;;;;;10.90;6.80;;;;;;;4.65;100.00;101361.47;5025662;28;20048;-83
2023/03/16 07:36:38;;;;;;;9.17;6.77;;;;;;;4.67;100.00;101359.47;5026218;28;20025;-84
2023/03/16 07:39:05;;;;;;;9.53;6.20;;;;;;;4.71;100.00;101356.31;5025368;28;20457;-83
2023/03/16 07:41:30;;;;;;;11.87;6.57;;;;;;;4.72;100.00;101358.00;5022886;28;20082;-84
2023/03/16 07:43:57;;;;;;;10.90;6.43;;;;;;;4.76;100.00;101358.53;5026687;28;20029;-84
2023/03/16 07:46:23;;;;;;;8.50;6.20;;;;;;;4.79;100.00;101363.56;5024245;28;20030;-84
2023/03/16 07:48:48;;;;;;;10.53;6.30;;;;;;;4.83;100.00;101350.66;5023332;28;20075;-84
2023/03/16 07:51:13;;;;;;;10.90;6.23;;;;;;;4.86;100.00;101351.16;5026996;28;20033;-84
2023/03/16 07:53:39;;;;;;;9.97;7.17;;;;;;;4.88;100.00;101354.53;5028648;28;20029;-85
2023/03/16 07:56:05;;;;;;;11.23;6.57;;;;;;;4.92;100.00;101357.72;5025407;28;20041;-85
2023/03/16 07:58:31;;;;;;;8.87;6.47;;;;;;;4.97;100.00;101355.41;5027484;28;20117;-84
2023/03/16 08:00:57;;;;;;;9.23;6.20;;;;;;;5.01;100.00;101362.13;5026004;28;20481;-84
2023/03/16 08:03:24;;;;;;;12.07;6.80;;;;;;;5.03;100.00;101348.53;5025563;28;20029;-79
2023/03/16 08:05:50;;;;;;;9.37;6.27;;;;;;;5.05;100.00;101343.84;5015614;28;20529;-78
2023/03/16 08:08:15;;;;;;;9.70;6.17;;;;;;;5.11;100.00;101350.41;5014367;28;20484;-78
2023/03/16 08:10:41;;;;;;;10.90;6.07;;;;;;;5.14;100.00;101344.72;5014648;28;20060;-79
2023/03/16 08:13:06;;;;;;;8.43;6.00;;;;;;;5.21;100.00;101351.97;5024081;28;20572;-84
2023/03/16 08:15:34;;;;;;;9.87;6.40;;;;;;;5.24;99.76;101343.56;5026187;28;20025;-84
2023/03/16 08:18:04;;;;;;;9.20;5.73;;;;;;;5.29;99.05;101352.97;5025617;28;20030;-84
2023/03/16 08:20:29;;;;;;;9.33;5.67;;;;;;;5.38;97.26;101352.00;5024906;28;20044;-84
2023/03/16 08:22:55;;;;;;;9.70;5.43;;;;;;;5.42;95.88;101345.28;5022082;28;20033;-84
2023/03/16 08:25:20;;;;;;;7.23;5.57;;;;;;;5.50;95.31;101345.28;5024010;28;20044;-84
2023/03/16 08:27:47;;;;;;;8.00;5.80;;;;;;;5.59;95.44;101348.84;5024346;28;20489;-84
2023/03/16 08:30:13;;;;;;;7.77;5.20;;;;;;;5.60;93.88;101350.50;5025163;28;20022;-84
2023/03/16 08:32:39;;;;;;;10.40;5.50;;;;;;;5.63;93.10;101346.66;5025633;28;20103;-83
2023/03/16 08:35:12;;;;;;;8.73;5.53;;;;;;;5.65;94.88;101353.53;5025502;28;20492;-83
2023/03/16 08:37:38;;;;;;;9.87;5.40;;;;;;;5.68;94.68;101355.06;5024168;28;20018;-84
2023/03/16 08:40:09;;;;;;;8.43;5.40;;;;;;;5.71;92.56;101357.41;5024804;28;20025;-79
2023/03/16 08:42:34;;;;;;;6.90;5.50;;;;;;;5.78;93.71;101350.38;4999448;28;20123;-79
2023/03/16 08:44:59;;;;;;;10.87;5.53;;;;;;;5.85;92.94;101353.22;5014169;28;20388;-79
2023/03/16 08:47:25;;;;;;;8.10;5.40;;;;;;;5.88;91.89;101353.72;5015105;28;20539;-79
2023/03/16 08:49:51;;;;;;;8.03;5.07;;;;;;;5.96;92.68;101360.13;5008960;28;20128;-79
2023/03/16 08:52:16;;;;;;;8.73;5.03;;;;;;;6.05;92.40;101351.03;5010066;28;20987;-79
2023/03/16 08:54:42;;;;;;;10.83;5.77;;;;;;;6.09;92.74;101355.06;5013468;28;20045;-79
2023/03/16 08:57:09;;;;;;;7.43;5.07;;;;;;;6.11;89.81;101350.38;5015435;28;20168;-79
2023/03/16 08:59:35;;;;;;;8.83;5.00;;;;;;;6.18;89.05;101348.69;5014837;28;20052;-79
2023/03/16 09:02:00;;;;;;;7.27;4.70;;;;;;;6.22;89.19;101341.94;5015687;28;21691;-79
2023/03/16 09:04:27;;;;;;;6.43;5.00;;;;;;;6.27;91.04;101329.81;5006798;28;20056;-84
2023/03/16 09:06:52;;;;;;;7.77;4.63;;;;;;;6.31;87.68;101336.53;5022978;28;20038;-84
2023/03/16 09:09:18;;;;;;;7.17;4.30;;;;;;;6.33;87.63;101331.84;5020491;28;20037;-84
2023/03/16 09:11:44;;;;;;;7.70;4.70;;;;;;;6.42;87.33;101339.72;5023102;28;20123;-84
2023/03/16 09:14:13;;;;;;;8.57;4.60;;;;;;;6.38;86.01;101324.94;5023518;28;20040;-84
2023/03/16 09:16:38;;;;;;;8.23;4.60;;;;;;;6.45;87.19;101332.31;5026525;28;20022;-84
2023/03/16 09:19:04;;;;;;;6.67;4.40;;;;;;;6.50;86.17;101330.78;5027621;28;20630;-84
2023/03/16 09:21:30;;;;;;;5.77;4.40;;;;;;;6.55;85.40;101332.94;5023824;28;20114;-84
2023/03/16 09:23:56;;;;;;;7.03;4.80;;;;;;;6.63;86.09;101330.22;5022364;28;20535;-79
2023/03/16 09:26:21;;;;;;;6.87;4.43;;;;;;;6.69;86.67;101320.59;5009539;28;20061;-79
2023/03/16 09:28:48;;;;;;;7.50;4.30;;;;;;;6.74;84.66;101324.44;5014921;28;20370;-79
2023/03/16 09:31:16;;;;;;;7.17;4.90;;;;;;;6.85;83.65;101333.19;5014870;28;20083;-79
2023/03/16 09:33:42;;;;;;;7.57;4.43;;;;;;;6.93;83.11;101325.91;5019348;28;20124;-84
2023/03/16 09:36:10;;;;;;;6.03;4.50;;;;;;;7.13;84.15;101324.63;5024007;28;20108;-88
2023/03/16 09:38:36;;;;;;;8.87;4.50;;;;;;;7.23;82.52;101323.34;5023251;28;20033;-84
2023/03/16 09:41:07;;;;;;;7.47;4.23;;;;;;;7.29;79.91;101319.13;5022200;28;20033;-84
2023/03/16 09:43:48;;;;;;;7.50;4.50;;;;;;;7.41;80.67;101325.78;5025444;28;20025;-84
2023/03/16 09:46:19;;;;;;;5.13;3.80;;;;;;;7.56;79.35;101320.47;5015663;28;20032;-79
2023/03/16 09:48:46;;;;;;;7.60;3.90;;;;;;;7.56;76.80;101328.56;5014749;28;20113;-79
2023/03/16 09:51:26;;;;;;;8.20;4.27;;;;;;;7.61;77.44;101319.91;5013223;28;20021;-79
2023/03/16 09:53:58;;;;;;;7.67;4.00;;;;;;;7.69;78.49;101327.94;5018093;28;20124;-79
2023/03/16 09:56:32;;;;;;;6.93;4.17;;;;;;;7.83;77.56;101323.59;5009065;28;20470;-79
2023/03/16 09:58:58;;;;;;;7.00;4.20;;;;;;;7.93;76.37;101313.41;5018272;28;20029;-79
2023/03/16 10:01:49;;;;;;;6.97;3.57;;;;;;;8.18;77.34;101318.56;5018330;28;20025;-79
2023/03/16 10:04:19;;;;;;;5.47;3.97;;;;;;;8.41;75.96;101304.97;5017767;28;20173;-80
2023/03/16 10:07:01;;;;;;;5.23;3.77;;;;;;;8.58;72.63;101302.97;5018139;28;20121;-79
2023/03/16 10:09:41;;;;;;;5.57;3.80;;;;;;;8.78;73.63;101300.53;5019397;28;20083;-84
2023/03/16 10:12:08;;;;;;;7.13;3.83;;;;;;;8.80;71.34;101294.94;5027882;28;20052;-84
2023/03/16 10:15:03;;;;;;;8.23;3.70;;;;;;;9.11;73.91;101299.22;5027488;28;20111;-84
2023/03/16 10:17:40;;;;;;;5.63;3.22;;;;;;;8.99;68.89;101287.22;5023094;28;20038;-83
2023/03/16 10:20:13;;;;;;;6.70;3.50;;;;;;;9.44;70.87;101291.47;5027908;28;20033;-84
2023/03/16 10:22:43;;;;;;;6.83;3.60;;;;;;;9.80;68.92;101295.97;5026200;28;20021;-84
2023/03/16 10:25:24;;;;;;;4.43;3.20;;;;;;;9.83;65.99;101283.06;5022545;28;20033;-84
2023/03/16 10:27:51;;;;;;;7.50;3.43;;;;;;;9.87;66.16;101295.97;5029030;28;20460;-84
2023/03/16 10:30:32;;;;;;;6.37;3.40;;;;;;;9.82;63.75;101284.06;5026118;28;20397;-84
2023/03/16 10:33:04;;;;;;;5.27;3.30;;;;;;;10.17;66.19;101287.66;5027654;28;20052;-84
2023/03/16 10:35:41;;;;;;;5.40;3.27;;;;;;;10.29;63.77;101290.66;5024103;28;21715;-84
2023/03/16 10:38:29;;;;;;;6.63;3.30;;;;;;;10.55;63.36;101292.72;5021614;28;20508;-84
2023/03/16 10:40:56;;;;;;;6.50;3.27;;;;;;;10.27;62.64;101285.44;5025508;28;20029;-84
2023/03/16 10:43:23;;;;;;;5.67;3.00;;;;;;;10.31;63.08;101288.59;5020580;28;20203;-84
2023/03/16 10:45:48;;;;;;;7.83;3.90;;;;;;;10.26;61.57;101282.94;5024032;28;20041;-84
2023/03/16 10:48:18;;;;;;;4.73;3.00;;;;;;;10.49;62.44;101277.25;5024012;28;20072;-80
2023/03/16 10:50:49;;;;;;;5.43;3.40;;;;;;;10.56;61.05;101274.59;5017067;28;20553;-79
2023/03/16 10:53:30;;;;;;;6.67;3.10;;;;;;;10.89;60.91;101271.16;5015942;28;20032;-80
2023/03/16 10:56:07;;;;;;;4.67;2.77;;;;;;;10.78;58.02;101253.63;5016852;28;20026;-80
2023/03/16 10:58:37;;;;;;;4.63;3.00;;;;;;;10.92;59.00;101274.31;5017227;28;20022;-80
2023/03/16 11:01:09;;;;;;;4.77;3.10;;;;;;;10.99;59.31;101266.22;5016725;28;20025;-80
2023/03/16 11:03:40;;;;;;;6.60;2.90;;;;;;;10.93;58.96;101262.44;5007333;28;20496;-79
2023/03/16 11:06:16;;;;;;;8.10;2.93;;;;;;;10.72;58.31;101260.69;5016586;28;20037;-80
2023/03/16 11:08:42;;;;;;;5.40;3.17;;;;;;;10.71;58.42;101253.59;5016754;28;20484;-80
2023/03/16 11:11:20;;;;;;;6.47;3.33;;;;;;;10.81;59.39;101242.34;5015428;28;20041;-79
2023/03/16 11:13:46;;;;;;;5.87;3.27;;;;;;;10.60;58.29;101244.16;5016775;28;20029;-80
2023/03/16 11:16:24;;;;;;;4.20;2.80;;;;;;;10.76;58.79;101239.44;5007375;28;20060;-80
2023/03/16 11:18:55;;;;;;;6.03;2.93;;;;;;;10.60;58.69;101237.91;5016539;28;20108;-79
2023/03/16 11:21:58;;;;;;;7.67;3.00;;;;;;;10.76;59.06;101239.44;5014865;28;20487;-80
2023/03/16 11:24:41;;;;;;;5.50;2.97;;;;;;;10.82;58.46;101238.63;5016173;28;20115;-80
2023/03/16 11:27:17;;;;;;;4.60;3.20;;;;;;;10.81;59.01;101220.69;5016443;28;20041;-79
2023/03/16 11:30:04;;;;;;;5.63;3.40;;;;;;;10.83;58.63;101221.31;5014925;28;20053;-78